Time;durP1;ratioP1;P1;durP2;ratioP2;P2;SDS_P1;SDS_P2;PMS_P1;PMS_P2;Temp;Humidity;BMP_temperature;BMP_pressure;BME280_temperature;BME280_humidity;BME280_pressure;Samples;Min_cycle;Max_cycle;Signal;HPM_P1;HPM_P2
2021/12/15 00:01:23;;;;;;;28.00;20.17;;;;;;;4.26;78.81;101426.19;5012856;28;20557;-71
2021/12/15 00:03:49;;;;;;;35.83;19.92;;;;;;;4.26;78.82;101434.00;5015013;28;20057;-70
2021/12/15 00:06:18;;;;;;;27.30;18.02;;;;;;;4.18;78.54;101431.09;5014590;28;20041;-70
2021/12/15 00:08:47;;;;;;;25.77;17.90;;;;;;;4.19;78.72;101470.13;5014367;28;20060;-70
2021/12/15 00:11:13;;;;;;;23.90;16.52;;;;;;;3.34;80.82;101461.97;5013257;28;20140;-69
2021/12/15 00:13:40;;;;;;;30.00;18.98;;;;;;;3.45;81.09;101454.72;5016961;28;20041;-69
2021/12/15 00:16:08;;;;;;;27.95;16.50;;;;;;;4.00;80.58;101467.53;5015950;28;20077;-69
2021/12/15 00:18:34;;;;;;;27.73;19.48;;;;;;;4.01;79.14;101441.63;5016427;28;20116;-69
2021/12/15 00:21:01;;;;;;;28.17;19.13;;;;;;;4.23;78.23;101459.03;5013904;28;20160;-72
2021/12/15 00:23:27;;;;;;;26.50;18.33;;;;;;;4.41;78.76;101468.44;5032295;28;20058;-71
2021/12/15 00:25:53;;;;;;;29.08;16.98;;;;;;;4.33;78.30;101434.34;5013730;28;20055;-71
2021/12/15 00:28:19;;;;;;;30.42;17.20;;;;;;;4.50;77.91;101468.81;4997979;28;20379;-70
2021/12/15 00:30:44;;;;;;;30.52;18.77;;;;;;;4.35;78.14;101453.44;5016137;28;20056;-71
2021/12/15 00:33:11;;;;;;;25.67;16.58;;;;;;;4.30;78.42;101472.28;5015581;28;20095;-71
2021/12/15 00:35:37;;;;;;;32.35;19.38;;;;;;;4.27;78.35;101474.75;4994683;28;20787;-70
2021/12/15 00:38:04;;;;;;;41.17;20.02;;;;;;;4.07;78.53;101445.31;5010071;28;20143;-70
2021/12/15 00:40:30;;;;;;;36.15;19.20;;;;;;;3.67;78.91;101446.16;5015777;28;20184;-71
2021/12/15 00:42:56;;;;;;;29.33;17.23;;;;;;;4.20;78.66;101434.63;5015894;28;20046;-71
2021/12/15 00:45:22;;;;;;;32.78;18.40;;;;;;;4.38;77.73;101437.13;5015805;28;20030;-71
2021/12/15 00:47:48;;;;;;;32.60;19.38;;;;;;;4.04;78.50;101466.84;5016119;28;20564;-70
2021/12/15 00:50:18;;;;;;;33.30;19.42;;;;;;;3.93;79.32;101463.81;5015471;28;20593;-71
2021/12/15 00:52:45;;;;;;;30.15;19.20;;;;;;;4.20;78.92;101429.44;5015876;28;20600;-71
2021/12/15 00:55:14;;;;;;;29.35;20.00;;;;;;;4.29;77.95;101421.16;5013389;28;20045;-70
2021/12/15 00:57:40;;;;;;;34.47;19.70;;;;;;;4.74;77.14;101460.25;5014474;28;20048;-71
2021/12/15 01:00:10;;;;;;;33.75;21.20;;;;;;;4.76;77.21;101458.59;5016755;28;21009;-72
2021/12/15 01:02:36;;;;;;;29.13;19.05;;;;;;;4.65;76.96;101426.97;5015115;28;20397;-71
2021/12/15 01:05:02;;;;;;;28.25;20.65;;;;;;;4.63;76.83;101437.28;5016091;28;20046;-71
2021/12/15 01:07:28;;;;;;;28.50;18.77;;;;;;;4.61;76.93;101414.66;5017302;28;20057;-71
2021/12/15 01:09:57;;;;;;;27.08;19.08;;;;;;;4.63;76.69;101419.09;5013503;28;20049;-70
2021/12/15 01:20:41;;;;;;;28.70;18.20;;;;;;;4.61;77.66;101440.66;5018456;28;20747;-71
2021/12/15 01:23:11;;;;;;;26.08;17.77;;;;;;;4.57;77.40;101433.56;5018068;28;20068;-71
2021/12/15 01:25:52;;;;;;;27.83;16.70;;;;;;;4.61;76.83;101427.66;5017219;28;20538;-68
2021/12/15 01:28:18;;;;;;;27.40;18.02;;;;;;;4.56;77.05;101416.19;5016492;28;20520;-68
2021/12/15 01:30:46;;;;;;;25.17;19.15;;;;;;;4.46;77.65;101412.34;5017041;28;20061;-67
2021/12/15 01:33:12;;;;;;;28.55;17.63;;;;;;;4.56;77.33;101417.06;5018764;28;20120;-68
2021/12/15 01:35:42;;;;;;;28.63;19.02;;;;;;;4.81;76.81;101431.94;5018057;28;20046;-68
2021/12/15 01:38:08;;;;;;;25.70;19.33;;;;;;;4.80;76.43;101417.19;5017071;28;20045;-69
2021/12/15 01:40:38;;;;;;;32.97;18.95;;;;;;;4.70;76.25;101430.63;5016843;28;20034;-71
2021/12/15 01:43:24;;;;;;;27.40;17.77;;;;;;;4.57;77.04;101411.06;5018638;28;20076;-68
2021/12/15 01:48:42;;;;;;;25.02;18.70;;;;;;;4.64;76.67;101415.69;5018248;28;20143;-70
2021/12/15 01:51:11;;;;;;;28.02;18.98;;;;;;;4.47;77.08;101401.09;5017913;28;20022;-70
2021/12/15 01:53:38;;;;;;;29.85;20.17;;;;;;;4.55;77.16;101424.81;5018459;28;20159;-70
2021/12/15 01:56:05;;;;;;;37.70;19.77;;;;;;;4.16;77.46;101389.44;5016682;28;20061;-68
2021/12/15 01:58:31;;;;;;;29.85;19.80;;;;;;;4.67;77.12;101425.31;5019230;28;20520;-71
2021/12/15 02:01:05;;;;;;;34.65;20.20;;;;;;;4.60;77.11;101426.78;5019260;28;20045;-70
2021/12/15 02:03:31;;;;;;;32.40;20.10;;;;;;;4.80;76.63;101421.47;5000474;28;20071;-71
2021/12/15 02:05:58;;;;;;;32.38;19.17;;;;;;;4.37;77.04;101399.84;5018260;28;20124;-70
2021/12/15 02:08:24;;;;;;;30.70;20.83;;;;;;;4.53;77.54;101405.69;5016478;28;20060;-70
2021/12/15 02:10:50;;;;;;;27.80;19.00;;;;;;;3.97;79.13;101413.75;5015721;28;20052;-70
2021/12/15 02:13:17;;;;;;;30.58;20.73;;;;;;;3.93;80.07;101423.94;5017772;28;20049;-70
2021/12/15 02:15:54;;;;;;;26.40;20.20;;;;;;;4.16;78.98;101401.56;5017376;28;20879;-68
2021/12/15 02:18:26;;;;;;;33.25;21.90;;;;;;;4.17;78.82;101399.03;5033335;28;20282;-71
2021/12/15 02:21:14;;;;;;;33.17;19.98;;;;;;;4.18;78.97;101394.72;5019077;28;20130;-70
2021/12/15 02:23:45;;;;;;;35.90;19.90;;;;;;;4.41;78.44;101406.06;5017687;28;20180;-70
2021/12/15 02:26:17;;;;;;;35.00;21.42;;;;;;;4.34;78.31;101391.94;5018729;28;20056;-70
2021/12/15 02:28:49;;;;;;;26.70;18.60;;;;;;;4.23;79.05;101395.78;5000650;28;20053;-71
2021/12/15 02:31:41;;;;;;;33.35;21.33;;;;;;;4.39;79.10;101418.97;5017916;28;20041;-71
2021/12/15 02:39:19;;;;;;;37.08;22.98;;;;;;;4.43;78.18;101397.50;5018284;28;20040;-70
2021/12/15 02:41:46;;;;;;;39.05;23.52;;;;;;;4.44;78.01;101385.41;5016977;28;20041;-69
2021/12/15 02:44:20;;;;;;;37.88;22.45;;;;;;;4.25;78.46;101388.06;5017812;28;20783;-70
2021/12/15 02:46:47;;;;;;;32.72;21.30;;;;;;;4.41;78.26;101386.16;5032797;28;20412;-70
2021/12/15 02:49:17;;;;;;;39.65;22.25;;;;;;;4.57;78.13;101413.66;5018332;28;20045;-70
2021/12/15 02:51:46;;;;;;;33.80;20.73;;;;;;;4.37;78.11;101394.66;5017706;28;20053;-69
2021/12/15 02:54:12;;;;;;;30.15;20.90;;;;;;;4.45;77.65;101389.78;5018014;28;20030;-70
2021/12/15 02:56:40;;;;;;;36.47;20.33;;;;;;;4.32;77.53;101377.09;5017192;28;20472;-69
2021/12/15 02:59:08;;;;;;;38.50;23.95;;;;;;;4.55;77.94;101401.44;5017214;28;20059;-70
2021/12/15 03:17:40;;;;;;;40.78;23.55;;;;;;;4.05;79.22;101382.94;5018075;28;20053;-70
2021/12/15 03:20:10;;;;;;;42.63;24.00;;;;;;;4.13;79.17;101407.50;5015250;28;20046;-70
2021/12/15 03:22:36;;;;;;;39.08;25.58;;;;;;;3.92;80.04;101414.41;5006544;28;20489;-70
2021/12/15 03:25:04;;;;;;;42.00;23.05;;;;;;;4.04;79.47;101408.84;4998177;28;20042;-71
2021/12/15 03:33:27;;;;;;;42.03;26.38;;;;;;;4.18;78.95;101411.19;5005631;28;20383;-71
2021/12/15 03:33:33;;;;;;;34.53;22.10;;;;;;;4.11;79.66;101413.47;5016939;28;20037;-70
2021/12/15 03:36:10;;;;;;;35.80;23.00;;;;;;;4.33;78.80;101413.56;5016822;28;20065;-70
2021/12/15 03:38:37;;;;;;;35.42;22.17;;;;;;;4.36;78.96;101405.88;5015385;28;20588;-69
2021/12/15 03:41:06;;;;;;;31.92;23.08;;;;;;;4.46;79.30;101417.53;5020059;28;20065;-69
2021/12/15 03:43:33;;;;;;;40.97;21.77;;;;;;;4.39;78.97;101387.81;5018810;28;20057;-70
2021/12/15 03:46:03;;;;;;;35.60;22.42;;;;;;;4.45;78.30;101382.00;5016725;28;20508;-71
2021/12/15 03:48:32;;;;;;;41.15;23.42;;;;;;;4.33;79.08;101410.97;5016700;28;20112;-69
2021/12/15 03:50:58;;;;;;;35.05;21.83;;;;;;;4.27;79.84;101410.69;5015320;28;20040;-69
2021/12/15 03:53:25;;;;;;;33.85;22.58;;;;;;;4.29;79.51;101398.66;5015629;28;20102;-71
2021/12/15 03:55:52;;;;;;;38.72;20.58;;;;;;;4.60;78.73;101411.19;5015188;28;20045;-68
2021/12/15 03:58:22;;;;;;;35.92;20.83;;;;;;;4.41;78.24;101391.34;5016196;28;20038;-71
2021/12/15 04:00:53;;;;;;;43.83;23.60;;;;;;;4.44;77.89;101394.06;5015403;28;20492;-71
2021/12/15 04:03:46;;;;;;;42.33;21.33;;;;;;;4.64;77.90;101415.69;5017626;28;20051;-70
2021/12/15 04:06:19;;;;;;;38.73;22.23;;;;;;;4.24;79.03;101407.97;5014486;28;20140;-68
2021/12/15 04:08:46;;;;;;;37.95;23.55;;;;;;;4.18;79.37;101398.19;5015465;28;20570;-68
2021/12/15 04:11:14;;;;;;;40.55;21.25;;;;;;;4.27;79.33;101394.22;5014607;28;20056;-72
2021/12/15 04:13:42;;;;;;;36.35;21.08;;;;;;;4.45;78.74;101394.97;5014678;28;20077;-71
2021/12/15 04:16:15;;;;;;;42.97;24.10;;;;;;;4.47;78.33;101403.69;5014365;28;20055;-71
2021/12/15 04:18:41;;;;;;;33.65;21.27;;;;;;;4.64;78.29;101407.88;5015845;28;20059;-71
2021/12/15 04:21:07;;;;;;;33.55;20.23;;;;;;;4.63;78.21;101387.91;5016672;28;20041;-71
2021/12/15 04:23:33;;;;;;;39.45;21.42;;;;;;;4.48;78.43;101396.81;5016045;28;20529;-70
2021/12/15 04:25:59;;;;;;;43.08;20.77;;;;;;;4.51;78.66;101410.81;5015029;28;20045;-70
2021/12/15 04:28:33;;;;;;;45.80;22.75;;;;;;;4.43;78.94;101409.63;5015049;28;20050;-70
2021/12/15 04:31:04;;;;;;;37.80;21.40;;;;;;;4.18;79.33;101395.59;5015535;28;20103;-70
2021/12/15 04:33:30;;;;;;;35.63;21.08;;;;;;;4.41;79.17;101406.94;5016158;28;20522;-71
2021/12/15 04:35:58;;;;;;;40.35;24.27;;;;;;;4.31;79.25;101432.47;5015194;28;20032;-71
2021/12/15 04:38:26;;;;;;;43.05;24.98;;;;;;;4.12;79.57;101394.44;5014902;28;20489;-71
2021/12/15 04:40:52;;;;;;;40.75;21.13;;;;;;;4.40;79.60;101438.97;5014972;28;20069;-71
2021/12/15 04:43:18;;;;;;;61.15;24.65;;;;;;;4.07;79.77;101402.06;4999964;28;20489;-71
2021/12/15 04:45:44;;;;;;;38.58;23.55;;;;;;;4.11;80.07;101397.88;5019987;28;20049;-69
2021/12/15 04:48:10;;;;;;;41.58;24.20;;;;;;;4.31;79.94;101416.88;5021262;28;21590;-70
2021/12/15 04:50:37;;;;;;;35.38;21.75;;;;;;;4.48;79.81;101430.59;5018012;28;20045;-69
2021/12/15 04:53:05;;;;;;;43.67;23.88;;;;;;;4.61;79.17;101422.44;5019012;28;20539;-70
2021/12/15 04:55:34;;;;;;;43.03;23.83;;;;;;;4.45;79.01;101423.56;5005837;28;20050;-71
2021/12/15 04:58:03;;;;;;;35.90;23.48;;;;;;;4.43;78.83;101405.31;5005986;28;20042;-71
2021/12/15 05:00:31;;;;;;;36.63;20.58;;;;;;;4.52;78.89;101410.00;5017570;28;20528;-71
2021/12/15 05:02:58;;;;;;;48.65;22.25;;;;;;;4.31;79.83;101430.78;5020321;28;20029;-71
2021/12/15 05:05:26;;;;;;;38.75;23.05;;;;;;;4.30;79.91;101417.72;5019395;28;21230;-72
2021/12/15 05:07:52;;;;;;;34.45;22.85;;;;;;;4.53;79.43;101436.88;5020505;28;20042;-69
2021/12/15 05:10:19;;;;;;;35.28;19.67;;;;;;;4.38;79.57;101424.13;5016953;28;20056;-69
2021/12/15 05:12:45;;;;;;;45.70;22.70;;;;;;;4.33;79.76;101418.75;5017368;28;20136;-71
2021/12/15 05:15:11;;;;;;;42.58;21.13;;;;;;;4.40;79.68;101405.19;5019619;28;20116;-71
2021/12/15 05:17:36;;;;;;;36.55;21.52;;;;;;;4.43;79.55;101420.91;5019037;28;20052;-71
2021/12/15 05:20:05;;;;;;;39.10;21.08;;;;;;;4.50;79.85;101439.34;5018298;28;21145;-71
2021/12/15 05:22:32;;;;;;;36.38;19.60;;;;;;;4.46;79.86;101433.13;5017702;28;20107;-70
2021/12/15 05:24:59;;;;;;;43.33;23.30;;;;;;;4.27;79.69;101418.47;5018645;28;20049;-71
2021/12/15 05:27:25;;;;;;;39.85;26.75;;;;;;;4.20;81.25;101432.91;5017690;28;20037;-71
2021/12/15 05:29:51;;;;;;;44.90;26.65;;;;;;;4.51;79.97;101415.13;5016508;28;21028;-70
2021/12/15 05:32:18;;;;;;;53.45;24.75;;;;;;;4.54;79.54;101420.44;5018906;28;20485;-71
2021/12/15 05:34:49;;;;;;;41.13;24.25;;;;;;;4.52;79.99;101428.19;5017672;28;20094;-70
2021/12/15 05:37:17;;;;;;;36.10;25.45;;;;;;;4.54;79.56;101412.63;5016456;28;20065;-70
2021/12/15 05:39:44;;;;;;;43.25;25.17;;;;;;;4.48;79.38;101413.28;5002789;28;20063;-71
2021/12/15 05:42:10;;;;;;;44.72;28.08;;;;;;;4.46;79.28;101411.44;5018135;28;20056;-70
2021/12/15 05:44:36;;;;;;;41.03;24.52;;;;;;;4.40;79.62;101402.59;5015820;28;20808;-71
2021/12/15 05:47:03;;;;;;;42.40;25.65;;;;;;;4.62;79.52;101435.53;5017867;28;20148;-70
2021/12/15 05:49:29;;;;;;;52.40;27.40;;;;;;;4.35;79.99;101426.59;5018597;28;20585;-70
2021/12/15 05:51:55;;;;;;;45.47;24.75;;;;;;;4.64;79.59;101438.19;5018087;28;20119;-70
2021/12/15 05:54:21;;;;;;;40.30;22.42;;;;;;;4.56;79.52;101424.88;5018964;28;20202;-70
2021/12/15 05:56:47;;;;;;;43.60;23.58;;;;;;;4.77;79.30;101445.63;5020640;28;20165;-70
2021/12/15 05:59:13;;;;;;;43.30;22.70;;;;;;;4.51;79.39;101421.19;5019593;28;20049;-70
2021/12/15 06:01:40;;;;;;;34.25;21.88;;;;;;;4.40;79.67;101425.06;5016992;28;20041;-70
2021/12/15 06:04:06;;;;;;;42.10;24.98;;;;;;;4.52;79.85;101424.69;5001337;28;20041;-70
2021/12/15 06:06:33;;;;;;;38.85;23.15;;;;;;;4.84;78.77;101425.97;5017921;28;20045;-70
2021/12/15 06:08:59;;;;;;;34.78;23.55;;;;;;;4.85;78.26;101454.66;5032342;28;20052;-70
2021/12/15 06:11:25;;;;;;;43.33;25.27;;;;;;;4.78;78.88;101446.56;5017257;28;20045;-69
2021/12/15 06:13:53;;;;;;;47.85;26.80;;;;;;;4.11;80.82;101421.25;5018347;28;20049;-70
2021/12/15 06:16:20;;;;;;;44.17;25.13;;;;;;;3.71;82.41;101425.63;5018545;28;20038;-71
2021/12/15 06:18:48;;;;;;;41.78;24.80;;;;;;;4.13;81.73;101428.28;5015304;28;20041;-70
2021/12/15 06:21:15;;;;;;;38.17;22.52;;;;;;;3.91;82.14;101439.47;5018548;28;20152;-71
2021/12/15 06:23:41;;;;;;;38.28;23.65;;;;;;;3.88;82.90;101428.06;4999800;28;20057;-71
2021/12/15 06:26:08;;;;;;;34.90;25.42;;;;;;;4.29;80.79;101419.44;5016484;28;20056;-69
2021/12/15 06:28:36;;;;;;;46.05;25.50;;;;;;;4.33;81.00;101436.94;5016603;28;20073;-70
2021/12/15 06:31:06;;;;;;;49.95;25.90;;;;;;;4.40;80.85;101428.56;5017281;28;20056;-70
2021/12/15 06:33:33;;;;;;;44.20;25.70;;;;;;;4.62;80.32;101458.03;5019460;28;20051;-70
2021/12/15 06:36:01;;;;;;;42.92;24.95;;;;;;;4.49;80.32;101437.56;5018796;28;20029;-70
2021/12/15 06:38:32;;;;;;;49.47;27.73;;;;;;;4.64;80.15;101439.06;5017819;28;20045;-70
2021/12/15 06:40:58;;;;;;;41.25;24.35;;;;;;;4.87;79.41;101462.53;5000506;28;20045;-70
2021/12/15 06:43:25;;;;;;;54.63;27.45;;;;;;;4.77;79.27;101424.84;5016169;28;20046;-70
2021/12/15 06:59:16;;;;;;;50.75;27.83;;;;;;;4.60;78.75;101431.09;5016400;28;20723;-70
2021/12/15 07:01:42;;;;;;;41.97;24.67;;;;;;;4.75;78.77;101444.72;5016811;28;20049;-70
2021/12/15 07:04:07;;;;;;;40.28;22.35;;;;;;;4.81;78.59;101454.47;5016189;28;20107;-70
2021/12/15 07:06:33;;;;;;;47.28;23.50;;;;;;;4.24;79.61;101446.94;5015926;28;20053;-70
2021/12/15 07:08:58;;;;;;;44.22;22.92;;;;;;;4.56;79.06;101448.25;5015458;28;20033;-70
2021/12/15 07:11:24;;;;;;;45.67;22.42;;;;;;;4.86;78.25;101450.34;5015639;28;20060;-70
2021/12/15 07:13:50;;;;;;;42.83;24.63;;;;;;;4.83;78.08;101469.31;5015260;28;20490;-70
2021/12/15 07:16:18;;;;;;;42.88;24.77;;;;;;;4.86;78.12;101448.63;5016933;28;20103;-70
2021/12/15 07:18:52;;;;;;;43.25;23.88;;;;;;;5.00;78.11;101472.56;5017224;28;20204;-70
2021/12/15 07:21:21;;;;;;;;;;;;;;;4.68;79.25;101496.38;5017117;28;20049;-67
2021/12/15 07:23:49;;;;;;;49.00;25.08;;;;;;;4.77;79.36;101495.03;5015940;28;19928;-69
2021/12/15 07:26:15;;;;;;;48.40;26.48;;;;;;;4.58;79.30;101470.00;5016116;28;20384;-69
2021/12/15 07:28:40;;;;;;;47.80;25.75;;;;;;;4.56;79.73;101466.44;5004098;28;20583;-69
2021/12/15 07:31:07;;;;;;;44.22;25.05;;;;;;;4.35;80.08;101474.25;4997116;28;20046;-67
2021/12/15 07:33:34;;;;;;;47.15;24.88;;;;;;;4.68;78.55;101475.59;4999039;28;20038;-69
2021/12/15 07:36:00;;;;;;;47.55;24.40;;;;;;;4.97;78.78;101500.19;5018099;28;20119;-69
2021/12/15 07:38:26;;;;;;;45.78;26.88;;;;;;;4.37;79.74;101490.78;4999084;28;20038;-69
2021/12/15 07:40:51;;;;;;;40.47;21.15;;;;;;;4.57;79.64;101515.03;4997608;28;20042;-69
2021/12/15 07:43:24;;;;;;;48.58;27.33;;;;;;;4.47;79.99;101492.06;4998657;28;20072;-69
2021/12/15 07:46:03;;;;;;;45.80;26.95;;;;;;;4.07;80.45;101477.38;5001418;28;20041;-70
2021/12/15 07:48:34;;;;;;;50.08;25.27;;;;;;;4.50;79.56;101497.41;5016637;28;20591;-69
2021/12/15 07:51:02;;;;;;;36.70;21.98;;;;;;;4.75;78.47;101517.53;5017702;28;20049;-71
2021/12/15 07:53:27;;;;;;;40.60;21.10;;;;;;;4.22;79.52;101501.41;5016445;28;20166;-71
2021/12/15 07:55:54;;;;;;;60.03;33.97;;;;;;;3.81;81.83;101518.63;5017745;28;21234;-70
2021/12/15 07:58:21;;;;;;;53.97;30.00;;;;;;;4.48;80.28;101527.63;5016685;28;20057;-67
2021/12/15 08:00:48;;;;;;;44.15;28.25;;;;;;;4.39;79.71;101496.94;5014043;28;20053;-67
2021/12/15 08:03:15;;;;;;;48.03;29.60;;;;;;;4.64;79.94;101532.66;5015997;28;20039;-68
2021/12/15 08:05:42;;;;;;;48.67;25.25;;;;;;;4.25;80.65;101505.84;5013076;28;20505;-72
2021/12/15 08:08:08;;;;;;;45.65;26.35;;;;;;;4.13;81.97;101505.31;5015458;28;20046;-72
2021/12/15 08:10:35;;;;;;;45.88;25.70;;;;;;;4.42;81.17;101511.75;5013239;28;20048;-72
2021/12/15 08:13:01;;;;;;;48.63;26.35;;;;;;;4.45;80.65;101496.31;5015760;28;20056;-69
2021/12/15 08:15:27;;;;;;;40.53;24.17;;;;;;;4.58;80.40;101511.59;5017007;28;20045;-70
2021/12/15 08:17:53;;;;;;;47.53;26.20;;;;;;;4.66;78.13;101504.13;5015715;28;20899;-68
2021/12/15 08:20:25;;;;;;;41.85;26.02;;;;;;;4.70;77.96;101502.53;5013767;28;20152;-70
2021/12/15 08:22:51;;;;;;;47.42;27.08;;;;;;;4.94;77.59;101516.56;5015337;28;20553;-70
2021/12/15 08:25:18;;;;;;;58.97;26.20;;;;;;;5.14;77.66;101508.66;5013685;28;20187;-70
2021/12/15 08:27:45;;;;;;;44.15;22.75;;;;;;;4.92;77.40;101509.53;5013969;28;20042;-70
2021/12/15 08:30:18;;;;;;;48.20;24.38;;;;;;;4.98;78.03;101520.16;4997578;28;20125;-70
2021/12/15 08:32:45;;;;;;;43.97;22.85;;;;;;;4.54;78.11;101514.00;5015533;28;20053;-70
2021/12/15 08:35:10;;;;;;;50.00;26.23;;;;;;;4.61;79.06;101535.13;5016452;28;20822;-69
2021/12/15 08:37:36;;;;;;;50.92;25.48;;;;;;;4.78;79.33;101521.97;5030519;28;20128;-69
2021/12/15 08:40:03;;;;;;;56.20;27.83;;;;;;;4.26;80.78;101527.50;5015550;28;20083;-71
2021/12/15 08:42:30;;;;;;;49.05;27.55;;;;;;;4.20;81.12;101522.97;5014656;28;20033;-70
2021/12/15 08:44:56;;;;;;;43.80;27.48;;;;;;;4.41;80.78;101538.59;5014754;28;20041;-70
2021/12/15 08:47:22;;;;;;;36.78;23.27;;;;;;;4.04;81.06;101520.50;5014216;28;20156;-70
2021/12/15 08:49:47;;;;;;;61.08;26.75;;;;;;;4.06;81.29;101517.16;5014275;28;20083;-70
2021/12/15 08:52:13;;;;;;;50.65;26.55;;;;;;;4.41;80.88;101528.19;5016909;28;20702;-68
2021/12/15 08:54:38;;;;;;;38.63;24.90;;;;;;;4.35;81.16;101521.00;5015981;28;20069;-68
2021/12/15 08:57:04;;;;;;;46.40;24.17;;;;;;;4.35;81.29;101536.59;5015106;28;20496;-68
2021/12/15 08:59:29;;;;;;;56.15;29.13;;;;;;;4.37;80.88;101518.47;5015888;28;20054;-71
2021/12/15 09:01:55;;;;;;;54.47;28.00;;;;;;;4.53;80.76;101531.31;5013316;28;20049;-69
2021/12/15 09:04:21;;;;;;;63.20;29.17;;;;;;;4.83;79.74;101538.63;5016790;28;20199;-69
2021/12/15 09:06:48;;;;;;;61.38;29.35;;;;;;;4.23;81.16;101525.69;5014729;28;20037;-69
2021/12/15 09:09:15;;;;;;;47.38;26.17;;;;;;;4.33;80.78;101509.69;5012716;28;20500;-69
2021/12/15 09:11:43;;;;;;;52.53;27.13;;;;;;;4.30;81.28;101512.13;5031377;28;20064;-70
2021/12/15 09:14:11;;;;;;;50.08;28.45;;;;;;;4.74;80.35;101522.66;5015151;28;20061;-69
2021/12/15 09:16:38;;;;;;;48.38;26.45;;;;;;;4.48;81.96;101548.44;5045906;28;20073;-70
2021/12/15 09:19:05;;;;;;;52.25;30.17;;;;;;;4.84;80.92;101523.06;4991138;28;20073;-70
2021/12/15 09:21:33;;;;;;;55.47;26.40;;;;;;;4.68;80.36;101514.59;5014377;28;20829;-71
2021/12/15 09:24:01;;;;;;;46.72;28.25;;;;;;;4.53;80.63;101520.03;5014267;28;20021;-68
2021/12/15 09:26:29;;;;;;;48.35;26.45;;;;;;;4.09;81.51;101516.41;5013441;28;20088;-68
2021/12/15 09:28:54;;;;;;;49.53;26.60;;;;;;;4.35;81.71;101514.94;4999074;28;20057;-69
2021/12/15 09:31:20;;;;;;;65.20;32.47;;;;;;;4.70;80.93;101520.72;5017716;28;20045;-72
2021/12/15 09:33:49;;;;;;;58.97;28.50;;;;;;;4.45;81.46;101535.31;5019569;28;20049;-72
2021/12/15 09:36:19;;;;;;;48.38;24.15;;;;;;;4.55;80.97;101540.06;5018674;28;20037;-70
2021/12/15 09:38:48;;;;;;;44.78;26.77;;;;;;;4.76;80.09;101519.28;5049864;28;20080;-70
2021/12/15 09:41:17;;;;;;;45.83;25.13;;;;;;;4.35;81.26;101509.72;5018900;28;20042;-69
2021/12/15 09:43:45;;;;;;;54.10;30.92;;;;;;;4.58;80.85;101518.50;5017943;28;20125;-69
2021/12/15 09:57:30;;;;;;;66.18;35.00;;;;;;;5.20;79.17;101491.59;5018386;28;20179;-69
2021/12/15 10:03:06;;;;;;;58.40;33.15;;;;;;;5.38;78.51;101474.88;5017997;28;20076;-70
2021/12/15 10:05:58;;;;;;;56.55;32.17;;;;;;;5.63;78.55;101475.00;5017697;28;20084;-70
2021/12/15 10:11:41;;;;;;;54.88;32.65;;;;;;;5.32;78.14;101483.38;5003270;28;20568;-70
2021/12/15 10:19:46;;;;;;;59.42;34.95;;;;;;;5.38;79.09;101480.97;5001847;28;20100;-70
2021/12/15 10:22:40;;;;;;;56.38;30.35;;;;;;;5.01;79.38;101455.25;5003952;28;20042;-70
2021/12/15 10:25:08;;;;;;;65.07;37.05;;;;;;;5.18;79.75;101437.72;5018174;28;20049;-70
2021/12/15 10:27:42;;;;;;;53.35;29.55;;;;;;;5.11;79.61;101474.72;5018161;28;20040;-70
2021/12/15 10:30:26;;;;;;;39.70;28.20;;;;;;;5.34;79.09;101459.97;5017337;28;20124;-70
2021/12/15 10:33:05;;;;;;;42.85;28.65;;;;;;;5.16;78.62;101442.84;5015663;28;20042;-70
2021/12/15 10:35:38;;;;;;;50.17;29.35;;;;;;;5.20;78.84;101449.94;5017506;28;20045;-71
2021/12/15 10:38:31;;;;;;;49.85;28.55;;;;;;;5.36;79.06;101468.75;5016896;28;20513;-70
2021/12/15 10:41:05;;;;;;;51.50;30.20;;;;;;;5.31;79.21;101458.16;4987788;28;20096;-69
2021/12/15 10:43:40;;;;;;;44.58;28.17;;;;;;;5.02;79.62;101451.84;5007316;28;20038;-69
2021/12/15 10:46:17;;;;;;;51.33;30.67;;;;;;;5.36;79.52;101454.03;5017795;28;20089;-70
2021/12/15 10:49:07;;;;;;;55.80;32.20;;;;;;;5.57;78.80;101438.34;5015523;28;20065;-69
2021/12/15 10:51:33;;;;;;;48.45;29.90;;;;;;;5.55;79.04;101440.00;5017215;28;20037;-70
2021/12/15 10:54:28;;;;;;;55.13;30.92;;;;;;;5.96;78.04;101461.44;5018843;28;20037;-70
2021/12/15 10:56:58;;;;;;;44.95;26.67;;;;;;;5.49;77.41;101434.53;5016953;28;20132;-70
2021/12/15 10:59:28;;;;;;;40.80;26.60;;;;;;;5.79;76.34;101453.00;5016851;28;20080;-69
2021/12/15 11:02:05;;;;;;;44.33;26.35;;;;;;;5.79;76.62;101444.31;5017501;28;20045;-70
2021/12/15 11:04:37;;;;;;;48.05;28.48;;;;;;;5.76;76.42;101446.78;5016629;28;20084;-69
2021/12/15 11:07:14;;;;;;;51.90;28.73;;;;;;;6.06;76.54;101452.25;5013356;28;20167;-69
2021/12/15 11:09:45;;;;;;;43.67;27.20;;;;;;;6.05;75.74;101448.75;5012739;28;20053;-71
2021/12/15 11:12:26;;;;;;;55.53;27.73;;;;;;;6.06;74.95;101449.63;5015844;28;20037;-71
2021/12/15 11:14:55;;;;;;;40.47;27.30;;;;;;;5.58;75.55;101428.78;5017337;28;20049;-71
2021/12/15 11:17:24;;;;;;;52.15;26.95;;;;;;;6.10;75.13;101460.22;5014359;28;20049;-70
2021/12/15 11:20:04;;;;;;;46.80;27.77;;;;;;;6.08;74.65;101430.63;5017994;28;20049;-71
2021/12/15 11:22:49;;;;;;;43.25;26.10;;;;;;;6.17;74.74;101422.22;5017151;28;20057;-71
2021/12/15 11:25:23;;;;;;;46.10;27.65;;;;;;;6.24;73.72;101429.44;5016150;28;20053;-70
2021/12/15 11:28:12;;;;;;;48.83;27.05;;;;;;;5.81;73.88;101419.22;5016354;28;20064;-70
2021/12/15 11:30:40;;;;;;;48.60;27.55;;;;;;;5.66;75.66;101412.59;5017286;28;20041;-71
2021/12/15 11:33:16;;;;;;;55.25;29.25;;;;;;;5.93;74.73;101430.06;5016673;28;20175;-71
2021/12/15 11:35:55;;;;;;;47.97;26.65;;;;;;;6.29;74.14;101443.50;5015926;28;20053;-71
2021/12/15 11:38:44;;;;;;;41.65;27.17;;;;;;;6.16;73.18;101401.31;5016271;28;20045;-71
2021/12/15 11:41:12;;;;;;;50.53;26.25;;;;;;;6.30;73.39;101434.88;5014839;28;20120;-69
2021/12/15 11:43:45;;;;;;;35.22;22.33;;;;;;;6.42;73.09;101439.59;5002964;28;20391;-71
2021/12/15 11:49:13;;;;;;;37.80;25.45;;;;;;;6.00;73.64;101407.75;5043460;28;20627;-69
2021/12/15 11:51:48;;;;;;;49.60;28.13;;;;;;;6.08;73.44;101407.16;5012523;28;20065;-70
2021/12/15 11:54:22;;;;;;;44.35;27.25;;;;;;;6.27;74.04;101403.47;5010564;28;20559;-71
2021/12/15 11:57:06;;;;;;;;;;;;;;;6.53;73.84;101427.81;5011800;28;20081;-68
2021/12/15 11:59:36;;;;;;;51.53;28.70;;;;;;;6.26;73.33;101393.88;5010707;28;20040;-71
2021/12/15 12:02:08;;;;;;;41.13;28.15;;;;;;;6.26;73.40;101417.34;5012318;28;20069;-72
2021/12/15 12:04:46;;;;;;;51.45;28.98;;;;;;;6.44;73.62;101416.16;4979154;28;20054;-70
2021/12/15 12:07:33;;;;;;;62.03;26.65;;;;;;;6.43;72.62;101402.25;5013314;28;20084;-70
2021/12/15 12:10:05;;;;;;;42.60;27.83;;;;;;;6.44;72.00;101396.22;5010766;28;20105;-69
2021/12/15 12:12:41;;;;;;;51.17;28.52;;;;;;;6.34;72.23;101402.84;5012478;28;20038;-70
2021/12/15 12:15:13;;;;;;;49.63;27.80;;;;;;;6.34;71.76;101400.25;5013826;28;20037;-70
2021/12/15 12:17:42;;;;;;;45.63;28.63;;;;;;;6.31;72.49;101394.91;5011295;28;20046;-72
2021/12/15 12:20:14;;;;;;;46.65;30.73;;;;;;;6.46;72.54;101406.69;5010919;28;20466;-72
2021/12/15 12:22:43;;;;;;;51.97;28.83;;;;;;;6.55;72.62;101410.50;5027095;28;20057;-71
2021/12/15 12:25:16;;;;;;;55.05;29.98;;;;;;;6.44;72.36;101404.03;5012592;28;20049;-71
2021/12/15 12:27:43;;;;;;;51.97;29.85;;;;;;;6.60;71.95;101426.25;5012986;28;20061;-71
2021/12/15 12:30:13;;;;;;;53.42;29.63;;;;;;;6.47;71.98;101398.91;5012185;28;20022;-71
2021/12/15 12:32:40;;;;;;;65.53;31.08;;;;;;;6.57;72.10;101423.56;5012318;28;20052;-71
2021/12/15 12:35:08;;;;;;;64.10;27.88;;;;;;;6.29;72.39;101414.81;5011426;28;20528;-71
2021/12/15 12:37:35;;;;;;;56.95;24.85;;;;;;;6.47;71.96;101411.06;5011650;28;20042;-71
2021/12/15 12:40:08;;;;;;;50.45;27.52;;;;;;;6.55;71.66;101406.97;5012113;28;20073;-71
2021/12/15 12:42:40;;;;;;;50.10;25.38;;;;;;;6.48;71.28;101397.19;5010541;28;20796;-72